Fort Lauderdale Executive Airport
KFXE : now visible

Airfield :











YOU CAN JOIN US ON...

 
LOGIN :

Register | Disclaimer

   EN    FR    IT 

 









Legend :    VFR   Marginal VFR   IFR   Intensive IFR   Very Intensive IFR
Visi :
Ceiling :
>= 8 km
>= 3000ft
5 to 8 km
1000 to 3000 ft
1500m to 5 km
500 to 1000 ft
800 to 1500m
200 to 500 ft
< 800m
< 200 ft
Symbols :   Thunderstorms  Fog  Heavy snow  Heavy precipitations  Wind > 20 kt






- Airport Elevation : 13 ft


KFXE - Fort Lauderdale Executive

CURRENT METAR :
  • 092353Z 27009KT 10SM CLR 29/19 A2982 RMK AO2 SLP099 T02940194 10344 20294 53005

EXPIRED METARs :
  • 092253Z 26015KT 10SM CLR 31/19 A2980 RMK AO2 SLP094 T03110194
  • 092153Z 28014G20KT 10SM FEW060 33/19 A2980 RMK AO2 SLP093 T03330189

TAF KFXE
Valid from the 09 at 21:00 until the 10 at 18:00 UTC


092104Z 0921/1018 28012G20KT P6SM SCT050
FM100000 25006KT P6SM BKN250
FM101000 26006KT P6SM BKN025
FM101600 28011G17KT P6SM VCSH BKN025



MET'MAP, your aeronautical weather chart ! - Copyright ORBIFLY December 2007 - Disclaimer

ORBIFLY MET'MAP TEAM :

Programming & Development : Alexandra Zaïnal
Concept & original design : Baudouin d'Aumeries
Assistance for programming : Marc-Olivier Méhu
Technical & hardware support : Manuel Goepfert

Contact : metmap@orbifly.com




SOURCES & CREDITS :

   NOAA       Earth
Advisory